Time;durP1;ratioP1;P1;durP2;ratioP2;P2;SDS_P1;SDS_P2;PMS_P1;PMS_P2;Temp;Humidity;BMP_temperature;BMP_pressure;BME280_temperature;BME280_humidity;BME280_pressure;Samples;Min_cycle;Max_cycle;Signal;HPM_P1;HPM_P2
2023/05/06 00:00:08;;;;;;;10.80;6.97;;;;;;;;;;762793;180;913387;-76
2023/05/06 00:02:34;;;;;;;14.20;7.30;;;;;;;;;;773359;181;918871;-76
2023/05/06 00:04:59;;;;;;;12.20;7.73;;;;;;;;;;761614;180;844659;-76
2023/05/06 00:07:25;;;;;;;12.03;7.33;;;;;;;;;;766474;180;919159;-76
2023/05/06 00:09:51;;;;;;;9.63;7.30;;;;;;;;;;767612;180;713408;-76
2023/05/06 00:12:17;;;;;;;12.47;7.57;;;;;;;;;;764891;180;919751;-76
2023/05/06 00:14:43;;;;;;;12.70;8.90;;;;;;;;;;760668;180;919499;-76
2023/05/06 00:17:09;;;;;;;9.10;5.93;;;;;;;;;;762874;184;816586;-76
2023/05/06 00:19:34;;;;;;;10.93;6.20;;;;;;;;;;760995;180;918695;-76
2023/05/06 00:22:00;;;;;;;10.60;7.50;;;;;;;;;;759481;180;826803;-76
2023/05/06 00:24:27;;;;;;;13.83;6.90;;;;;;;;;;765278;184;816863;-75
2023/05/06 00:26:52;;;;;;;10.80;6.63;;;;;;;;;;772898;181;869944;-76
2023/05/06 00:29:18;;;;;;;11.87;7.00;;;;;;;;;;762404;181;918826;-76
2023/05/06 00:31:44;;;;;;;14.00;7.43;;;;;;;;;;760213;181;919899;-76
2023/05/06 00:34:10;;;;;;;10.47;7.10;;;;;;;;;;761067;181;919503;-75
2023/05/06 00:36:36;;;;;;;8.17;6.80;;;;;;;;;;758493;181;919808;-75
2023/05/06 00:39:02;;;;;;;9.18;7.12;;;;;;;;;;764956;181;937658;-76
2023/05/06 00:41:29;;;;;;;11.67;6.93;;;;;;;;;;766444;181;1004136;-76
2023/05/06 00:43:55;;;;;;;10.00;7.43;;;;;;;;;;731773;189;919334;-76
2023/05/06 00:46:21;;;;;;;18.60;8.33;;;;;;;;;;764721;181;918779;-76
2023/05/06 00:48:47;;;;;;;11.80;7.95;;;;;;;;;;764528;180;919998;-75
2023/05/06 00:51:13;;;;;;;11.93;7.23;;;;;;;;;;772031;177;917941;-76
2023/05/06 00:53:39;;;;;;;12.23;8.20;;;;;;;;;;754244;183;918788;-76
2023/05/06 00:56:05;;;;;;;20.48;8.43;;;;;;;;;;754532;182;918476;-76
2023/05/06 00:58:30;;;;;;;13.07;8.30;;;;;;;;;;755866;184;915419;-76
2023/05/06 01:00:57;;;;;;;13.00;8.70;;;;;;;;;;759796;184;879160;-76
2023/05/06 01:03:22;;;;;;;11.40;7.70;;;;;;;;;;765240;183;811346;-76
2023/05/06 01:05:48;;;;;;;14.17;8.50;;;;;;;;;;770245;183;820810;-77
2023/05/06 01:08:17;;;;;;;11.20;7.93;;;;;;;;;;760236;181;941394;-76
2023/05/06 01:10:44;;;;;;;11.80;7.63;;;;;;;;;;766278;180;916920;-76
2023/05/06 01:13:14;;;;;;;16.90;8.20;;;;;;;;;;762397;180;1022808;-76
2023/05/06 01:15:40;;;;;;;12.30;9.40;;;;;;;;;;770005;181;736455;-76
2023/05/06 01:18:07;;;;;;;13.27;8.20;;;;;;;;;;768366;181;919459;-76
2023/05/06 01:20:33;;;;;;;15.53;7.57;;;;;;;;;;765026;183;919349;-76
2023/05/06 01:22:59;;;;;;;11.43;7.33;;;;;;;;;;770678;183;917322;-76
2023/05/06 01:25:24;;;;;;;12.47;9.13;;;;;;;;;;764895;183;918655;-76
2023/05/06 01:27:50;;;;;;;12.37;7.77;;;;;;;;;;759296;182;851655;-76
2023/05/06 01:30:16;;;;;;;13.60;7.80;;;;;;;;;;759110;183;841545;-76
2023/05/06 01:32:43;;;;;;;13.20;8.10;;;;;;;;;;760984;183;915700;-76
2023/05/06 01:35:14;;;;;;;10.97;7.87;;;;;;;;;;762931;183;914182;-76
2023/05/06 01:37:46;;;;;;;15.40;7.00;;;;;;;;;;753555;183;918612;-76
2023/05/06 01:40:11;;;;;;;13.30;7.20;;;;;;;;;;762845;181;914261;-76
2023/05/06 01:42:37;;;;;;;13.40;8.00;;;;;;;;;;767670;181;910866;-76
2023/05/06 01:45:03;;;;;;;13.23;8.30;;;;;;;;;;756085;182;914825;-77
2023/05/06 01:47:29;;;;;;;12.87;8.97;;;;;;;;;;751197;183;941377;-76
2023/05/06 01:49:55;;;;;;;14.97;8.40;;;;;;;;;;765389;181;845501;-76
2023/05/06 01:52:21;;;;;;;14.83;9.47;;;;;;;;;;764321;181;916935;-76
2023/05/06 01:54:46;;;;;;;11.90;9.17;;;;;;;;;;760818;181;908508;-77
2023/05/06 01:57:12;;;;;;;13.87;8.60;;;;;;;;;;767440;180;919001;-76
2023/05/06 01:59:38;;;;;;;13.60;8.60;;;;;;;;;;761789;181;919042;-76
2023/05/06 02:02:05;;;;;;;12.77;9.47;;;;;;;;;;754918;183;919005;-77
2023/05/06 02:04:30;;;;;;;14.57;9.30;;;;;;;;;;750221;183;919539;-76
2023/05/06 02:06:56;;;;;;;16.43;9.03;;;;;;;;;;764247;183;814970;-77
2023/05/06 02:09:21;;;;;;;14.80;9.43;;;;;;;;;;760728;183;816480;-77
2023/05/06 02:11:47;;;;;;;14.07;8.07;;;;;;;;;;766788;181;917220;-76
2023/05/06 02:14:13;;;;;;;13.13;9.30;;;;;;;;;;760693;181;918758;-76
2023/05/06 02:16:39;;;;;;;11.23;9.00;;;;;;;;;;728754;189;918897;-76
2023/05/06 02:19:05;;;;;;;19.10;9.60;;;;;;;;;;754320;186;816532;-76
2023/05/06 02:21:31;;;;;;;15.40;9.67;;;;;;;;;;762237;183;919289;-76
2023/05/06 02:23:57;;;;;;;16.07;8.97;;;;;;;;;;761226;180;918552;-76
2023/05/06 02:26:23;;;;;;;18.73;9.23;;;;;;;;;;754970;183;919050;-76
2023/05/06 02:28:48;;;;;;;12.70;8.30;;;;;;;;;;762912;184;918660;-76
2023/05/06 02:31:14;;;;;;;12.40;9.03;;;;;;;;;;758252;180;939350;-76
2023/05/06 02:33:40;;;;;;;16.57;9.20;;;;;;;;;;758774;180;918650;-76
2023/05/06 02:36:06;;;;;;;13.70;8.67;;;;;;;;;;755183;181;917807;-76
2023/05/06 02:38:32;;;;;;;12.47;8.50;;;;;;;;;;764262;183;919291;-77
2023/05/06 02:40:58;;;;;;;13.80;9.57;;;;;;;;;;758135;182;921299;-76
2023/05/06 02:43:23;;;;;;;12.23;8.07;;;;;;;;;;754834;183;915822;-76
2023/05/06 02:45:49;;;;;;;10.48;7.32;;;;;;;;;;766636;181;916936;-77
2023/05/06 02:48:15;;;;;;;9.50;7.70;;;;;;;;;;766867;180;918848;-76
2023/05/06 02:50:41;;;;;;;11.23;8.20;;;;;;;;;;763917;180;917642;-76
2023/05/06 02:53:08;;;;;;;12.48;7.30;;;;;;;;;;772372;181;800085;-76
2023/05/06 02:55:33;;;;;;;12.17;8.30;;;;;;;;;;758053;181;914592;-77
2023/05/06 02:57:59;;;;;;;10.17;7.80;;;;;;;;;;762668;181;918425;-76
2023/05/06 03:00:24;;;;;;;14.10;8.20;;;;;;;;;;762760;181;918012;-76
2023/05/06 03:02:50;;;;;;;13.60;8.37;;;;;;;;;;766721;181;919462;-77
2023/05/06 03:05:16;;;;;;;12.82;8.50;;;;;;;;;;764105;181;911255;-76
2023/05/06 03:07:42;;;;;;;10.73;7.77;;;;;;;;;;751484;181;918421;-77
2023/05/06 03:10:08;;;;;;;13.43;8.47;;;;;;;;;;757289;183;919476;-77
2023/05/06 03:12:34;;;;;;;17.80;8.17;;;;;;;;;;742240;187;907941;-76
2023/05/06 03:15:00;;;;;;;13.70;8.40;;;;;;;;;;744309;186;918601;-76
2023/05/06 03:17:26;;;;;;;9.93;7.57;;;;;;;;;;768701;183;916963;-76
2023/05/06 03:19:52;;;;;;;13.87;7.43;;;;;;;;;;763846;183;919470;-77
2023/05/06 03:22:18;;;;;;;14.37;8.63;;;;;;;;;;766569;180;919557;-76
2023/05/06 03:24:44;;;;;;;16.90;8.13;;;;;;;;;;763156;182;915834;-75
2023/05/06 03:27:10;;;;;;;13.23;8.63;;;;;;;;;;762599;183;922007;-76
2023/05/06 03:29:36;;;;;;;8.67;6.87;;;;;;;;;;762187;183;919580;-76
2023/05/06 03:32:02;;;;;;;11.03;7.70;;;;;;;;;;754406;183;1003746;-77
2023/05/06 03:34:28;;;;;;;12.97;8.30;;;;;;;;;;770914;182;814896;-76
2023/05/06 03:36:54;;;;;;;18.07;8.30;;;;;;;;;;765527;180;919171;-77
2023/05/06 03:39:19;;;;;;;11.27;7.90;;;;;;;;;;766435;180;903427;-77
2023/05/06 03:41:45;;;;;;;11.43;6.77;;;;;;;;;;774208;180;930042;-77
2023/05/06 03:44:11;;;;;;;16.40;11.37;;;;;;;;;;748103;184;818296;-76
2023/05/06 03:46:38;;;;;;;15.67;10.50;;;;;;;;;;754235;183;1024692;-76
2023/05/06 03:49:03;;;;;;;19.53;12.53;;;;;;;;;;762812;183;918998;-76
2023/05/06 03:51:29;;;;;;;38.13;23.17;;;;;;;;;;765127;180;918637;-77
2023/05/06 03:53:55;;;;;;;25.20;15.20;;;;;;;;;;760250;179;925271;-76
2023/05/06 03:56:21;;;;;;;14.50;8.80;;;;;;;;;;765860;181;918692;-75
2023/05/06 03:58:46;;;;;;;10.40;9.30;;;;;;;;;;761584;181;1016466;-75
2023/05/06 04:01:12;;;;;;;13.57;8.20;;;;;;;;;;751374;181;983844;-75
2023/05/06 04:03:38;;;;;;;12.40;7.83;;;;;;;;;;765068;180;918404;-76
2023/05/06 04:06:04;;;;;;;11.93;8.27;;;;;;;;;;765169;181;915126;-76
2023/05/06 04:08:30;;;;;;;13.23;9.37;;;;;;;;;;765093;180;1020434;-76
2023/05/06 04:10:56;;;;;;;12.60;8.00;;;;;;;;;;757268;181;917473;-76
2023/05/06 04:13:22;;;;;;;12.97;7.83;;;;;;;;;;767414;181;1024564;-77
2023/05/06 04:15:48;;;;;;;20.07;7.73;;;;;;;;;;765941;181;918988;-77
2023/05/06 04:18:17;;;;;;;13.63;7.10;;;;;;;;;;763597;181;919698;-77
2023/05/06 04:20:39;;;;;;;8.90;7.00;;;;;;;;;;758346;180;915077;-76
2023/05/06 04:23:05;;;;;;;12.10;8.80;;;;;;;;;;763080;181;923090;-77
2023/05/06 04:25:31;;;;;;;12.40;8.17;;;;;;;;;;761635;180;923509;-76
2023/05/06 04:27:57;;;;;;;19.03;8.63;;;;;;;;;;764895;180;846227;-77
2023/05/06 04:30:23;;;;;;;13.57;9.90;;;;;;;;;;765515;181;919324;-78
2023/05/06 04:32:49;;;;;;;17.60;8.80;;;;;;;;;;764289;181;917839;-77
2023/05/06 04:35:15;;;;;;;18.33;10.83;;;;;;;;;;764476;180;915460;-77
2023/05/06 04:37:40;;;;;;;17.57;8.37;;;;;;;;;;763474;181;982796;-77
2023/05/06 04:40:08;;;;;;;15.33;10.40;;;;;;;;;;740124;186;911354;-77
2023/05/06 04:42:33;;;;;;;17.17;9.40;;;;;;;;;;766364;181;917830;-77
2023/05/06 04:44:58;;;;;;;15.03;9.27;;;;;;;;;;760487;181;920269;-77
2023/05/06 04:47:24;;;;;;;14.63;10.23;;;;;;;;;;766129;183;869541;-78
2023/05/06 04:49:50;;;;;;;14.20;9.40;;;;;;;;;;761284;182;1032727;-77
2023/05/06 04:52:16;;;;;;;28.10;18.37;;;;;;;;;;755018;182;919314;-77
2023/05/06 04:54:42;;;;;;;18.63;12.00;;;;;;;;;;760093;182;917672;-77
2023/05/06 04:57:08;;;;;;;33.93;19.60;;;;;;;;;;768882;181;943214;-77
2023/05/06 04:59:33;;;;;;;17.30;10.50;;;;;;;;;;758888;183;918143;-77
2023/05/06 05:01:59;;;;;;;27.43;16.30;;;;;;;;;;755514;183;916343;-77
2023/05/06 05:04:25;;;;;;;16.37;10.90;;;;;;;;;;759067;181;940143;-76
2023/05/06 05:06:51;;;;;;;39.87;21.13;;;;;;;;;;763753;181;918650;-77
2023/05/06 05:09:17;;;;;;;14.23;9.13;;;;;;;;;;762957;181;918766;-77
2023/05/06 05:11:43;;;;;;;27.20;18.90;;;;;;;;;;763190;183;915651;-77
2023/05/06 05:14:09;;;;;;;32.03;19.10;;;;;;;;;;763698;181;952564;-77
2023/05/06 05:16:34;;;;;;;26.97;15.63;;;;;;;;;;763387;180;1026542;-76
2023/05/06 05:19:00;;;;;;;16.63;11.00;;;;;;;;;;754353;181;910326;-77
2023/05/06 05:21:26;;;;;;;39.73;23.07;;;;;;;;;;761924;183;917375;-77
2023/05/06 05:23:52;;;;;;;30.73;11.53;;;;;;;;;;762586;183;919364;-77
2023/05/06 05:26:18;;;;;;;24.30;14.57;;;;;;;;;;762566;183;918128;-77
2023/05/06 05:28:44;;;;;;;41.37;20.43;;;;;;;;;;762623;181;917532;-78
2023/05/06 05:31:10;;;;;;;49.07;23.47;;;;;;;;;;762322;180;918191;-78
2023/05/06 05:33:35;;;;;;;20.70;13.10;;;;;;;;;;763159;183;918313;-78
2023/05/06 05:36:01;;;;;;;19.57;13.23;;;;;;;;;;764948;180;818077;-77
2023/05/06 05:38:27;;;;;;;16.17;11.37;;;;;;;;;;751237;184;945262;-77
2023/05/06 05:40:53;;;;;;;14.30;10.40;;;;;;;;;;766789;181;816243;-77
2023/05/06 05:43:20;;;;;;;16.33;10.90;;;;;;;;;;770731;181;816423;-78
2023/05/06 05:45:45;;;;;;;20.07;11.47;;;;;;;;;;757370;181;1019278;-77
2023/05/06 05:48:10;;;;;;;16.43;10.23;;;;;;;;;;757428;181;917970;-77
2023/05/06 05:50:36;;;;;;;14.97;11.20;;;;;;;;;;763622;181;816477;-77
2023/05/06 05:53:02;;;;;;;24.47;11.83;;;;;;;;;;763788;181;942271;-77
2023/05/06 05:55:28;;;;;;;16.50;10.30;;;;;;;;;;764380;180;713856;-77
2023/05/06 05:57:54;;;;;;;16.70;11.70;;;;;;;;;;770294;183;918787;-78
2023/05/06 06:00:20;;;;;;;21.17;11.70;;;;;;;;;;765873;180;927896;-78
2023/05/06 06:02:46;;;;;;;19.40;11.20;;;;;;;;;;759862;182;918932;-78
2023/05/06 06:05:12;;;;;;;17.00;10.50;;;;;;;;;;762303;182;965425;-77
2023/05/06 06:07:37;;;;;;;16.03;11.77;;;;;;;;;;774737;179;814280;-78
2023/05/06 06:10:03;;;;;;;20.03;11.40;;;;;;;;;;759688;181;916437;-78
2023/05/06 06:12:29;;;;;;;18.60;11.02;;;;;;;;;;762641;180;924131;-78
2023/05/06 06:14:55;;;;;;;23.47;12.60;;;;;;;;;;771668;181;918130;-77
2023/05/06 06:17:21;;;;;;;19.77;13.80;;;;;;;;;;753490;183;918717;-77
2023/05/06 06:19:47;;;;;;;28.47;12.83;;;;;;;;;;763576;180;939028;-77
2023/05/06 06:22:13;;;;;;;18.63;10.67;;;;;;;;;;769187;180;864814;-77
2023/05/06 06:24:39;;;;;;;18.37;12.60;;;;;;;;;;753425;183;920845;-78
2023/05/06 06:27:05;;;;;;;40.87;20.90;;;;;;;;;;764898;181;918121;-77
2023/05/06 06:29:31;;;;;;;39.73;18.87;;;;;;;;;;768196;180;918344;-78
2023/05/06 06:31:57;;;;;;;21.93;13.93;;;;;;;;;;764090;181;875232;-78
2023/05/06 06:34:22;;;;;;;42.03;21.87;;;;;;;;;;765396;180;817669;-77
2023/05/06 06:36:48;;;;;;;34.70;19.53;;;;;;;;;;767641;180;921909;-77
2023/05/06 06:39:14;;;;;;;65.27;27.77;;;;;;;;;;768240;180;816170;-78
2023/05/06 06:41:40;;;;;;;41.13;20.45;;;;;;;;;;765955;180;814664;-78
2023/05/06 06:44:06;;;;;;;14.52;10.65;;;;;;;;;;765960;181;900810;-77
2023/05/06 06:46:32;;;;;;;20.30;10.87;;;;;;;;;;769866;181;731471;-78
2023/05/06 06:48:58;;;;;;;16.30;9.50;;;;;;;;;;759264;181;701376;-78
2023/05/06 06:51:23;;;;;;;15.80;10.10;;;;;;;;;;758828;183;819909;-77
2023/05/06 06:53:49;;;;;;;23.23;12.60;;;;;;;;;;762582;183;820540;-77
2023/05/06 06:56:15;;;;;;;21.67;13.17;;;;;;;;;;765530;180;919052;-77
2023/05/06 06:58:41;;;;;;;18.47;10.30;;;;;;;;;;760867;183;814459;-77
2023/05/06 07:01:07;;;;;;;14.13;10.13;;;;;;;;;;735783;190;916342;-77
2023/05/06 07:03:33;;;;;;;41.97;22.87;;;;;;;;;;744137;189;921763;-77
2023/05/06 07:05:58;;;;;;;15.13;10.97;;;;;;;;;;759345;183;921035;-77
2023/05/06 07:08:24;;;;;;;34.70;16.13;;;;;;;;;;758943;180;810382;-78
2023/05/06 07:10:50;;;;;;;25.90;16.30;;;;;;;;;;757417;183;848674;-77
2023/05/06 07:13:16;;;;;;;18.87;10.40;;;;;;;;;;754397;182;1741468;-78
2023/05/06 07:15:42;;;;;;;23.03;11.87;;;;;;;;;;760467;181;818628;-78
2023/05/06 07:18:08;;;;;;;17.27;10.00;;;;;;;;;;765575;180;812991;-77
2023/05/06 07:20:34;;;;;;;24.83;14.37;;;;;;;;;;766558;180;825041;-77
2023/05/06 07:23:00;;;;;;;23.63;14.70;;;;;;;;;;756245;183;917578;-77
2023/05/06 07:25:26;;;;;;;15.32;10.43;;;;;;;;;;766513;180;917987;-77
2023/05/06 07:27:51;;;;;;;18.47;9.57;;;;;;;;;;755456;181;818528;-77
2023/05/06 07:30:18;;;;;;;14.53;9.60;;;;;;;;;;760422;181;814257;-77
2023/05/06 07:32:43;;;;;;;26.65;15.48;;;;;;;;;;766556;181;873637;-77
2023/05/06 07:35:09;;;;;;;14.47;9.63;;;;;;;;;;767504;181;816357;-77
2023/05/06 07:37:35;;;;;;;14.03;10.60;;;;;;;;;;764041;182;916650;-78
2023/05/06 07:40:01;;;;;;;15.27;9.90;;;;;;;;;;764497;181;818252;-77
2023/05/06 07:42:27;;;;;;;17.10;12.07;;;;;;;;;;760633;183;994784;-77
2023/05/06 07:44:53;;;;;;;16.03;9.27;;;;;;;;;;755959;181;814956;-77
2023/05/06 07:47:35;;;;;;;13.60;5.87;;;;;;;;;;765336;181;714621;-77
2023/05/06 07:50:01;;;;;;;6.60;4.40;;;;;;;;;;744824;187;810782;-76
2023/05/06 07:52:27;;;;;;;7.47;5.30;;;;;;;;;;773297;182;914288;-77
2023/05/06 07:54:53;;;;;;;6.63;5.50;;;;;;;;;;761700;183;915468;-78
2023/05/06 07:57:19;;;;;;;10.90;5.57;;;;;;;;;;765833;180;917742;-78
2023/05/06 07:59:46;;;;;;;7.73;5.60;;;;;;;;;;754899;181;919520;-77
2023/05/06 08:02:12;;;;;;;7.53;5.50;;;;;;;;;;762276;181;763768;-77
2023/05/06 08:04:38;;;;;;;7.73;5.00;;;;;;;;;;762285;180;914074;-77
2023/05/06 08:07:03;;;;;;;7.03;5.27;;;;;;;;;;759246;180;920865;-77
2023/05/06 08:09:29;;;;;;;7.90;5.47;;;;;;;;;;767184;183;910111;-77
2023/05/06 08:11:55;;;;;;;8.87;6.50;;;;;;;;;;763561;181;858733;-76
2023/05/06 08:14:21;;;;;;;8.50;5.63;;;;;;;;;;763079;180;818479;-77
2023/05/06 08:16:47;;;;;;;7.10;4.93;;;;;;;;;;766680;183;814503;-77
2023/05/06 08:19:13;;;;;;;7.30;5.90;;;;;;;;;;765751;180;1014335;-76
2023/05/06 08:21:39;;;;;;;9.50;6.90;;;;;;;;;;768117;181;813516;-77
2023/05/06 08:24:05;;;;;;;8.47;6.77;;;;;;;;;;763728;180;919056;-77
2023/05/06 08:26:31;;;;;;;8.20;6.27;;;;;;;;;;763784;180;855615;-76
2023/05/06 08:28:58;;;;;;;7.77;6.10;;;;;;;;;;762257;180;917296;-81
2023/05/06 08:31:23;;;;;;;7.70;5.93;;;;;;;;;;762549;180;915514;-76
2023/05/06 08:33:50;;;;;;;7.63;6.00;;;;;;;;;;770963;180;866326;-77
2023/05/06 08:36:15;;;;;;;7.20;5.80;;;;;;;;;;763065;180;1027802;-76
2023/05/06 08:38:47;;;;;;;8.40;5.73;;;;;;;;;;766659;180;912473;-76
2023/05/06 08:41:06;;;;;;;7.90;5.57;;;;;;;;;;755347;183;917995;-76
2023/05/06 08:43:32;;;;;;;8.43;6.23;;;;;;;;;;747428;187;760133;-77
2023/05/06 08:45:58;;;;;;;10.43;6.90;;;;;;;;;;736603;188;815814;-76
2023/05/06 08:48:24;;;;;;;11.40;7.10;;;;;;;;;;762473;181;744960;-77
2023/05/06 08:50:50;;;;;;;10.73;7.00;;;;;;;;;;769662;180;962561;-77
2023/05/06 08:53:16;;;;;;;8.43;6.60;;;;;;;;;;760692;180;919895;-78
2023/05/06 08:55:42;;;;;;;8.43;6.53;;;;;;;;;;764464;180;809473;-78
2023/05/06 08:58:07;;;;;;;9.30;7.37;;;;;;;;;;763204;181;1670838;-77
2023/05/06 09:00:33;;;;;;;10.13;7.20;;;;;;;;;;754854;181;913562;-76
2023/05/06 09:03:00;;;;;;;12.00;7.10;;;;;;;;;;758033;180;814773;-76
2023/05/06 09:05:25;;;;;;;11.50;8.17;;;;;;;;;;766819;180;920054;-77
2023/05/06 09:07:51;;;;;;;9.27;6.22;;;;;;;;;;762687;180;915886;-76
2023/05/06 09:10:17;;;;;;;9.47;7.10;;;;;;;;;;756362;181;836564;-76
2023/05/06 09:12:42;;;;;;;7.07;6.33;;;;;;;;;;758106;180;921053;-76
2023/05/06 09:15:09;;;;;;;10.48;6.75;;;;;;;;;;772468;182;919482;-76
2023/05/06 09:17:35;;;;;;;10.10;7.40;;;;;;;;;;762754;182;871229;-77
2023/05/06 09:20:00;;;;;;;12.60;9.30;;;;;;;;;;752425;183;918236;-76
2023/05/06 09:22:26;;;;;;;13.17;9.97;;;;;;;;;;776459;180;915694;-77
2023/05/06 09:24:55;;;;;;;12.43;10.17;;;;;;;;;;759838;183;875779;-77
2023/05/06 09:27:21;;;;;;;14.50;11.67;;;;;;;;;;763445;183;937773;-76
2023/05/06 09:30:01;;;;;;;16.50;13.02;;;;;;;;;;766912;183;819363;-76
2023/05/06 09:32:26;;;;;;;16.87;11.00;;;;;;;;;;773404;180;918229;-76
2023/05/06 09:34:52;;;;;;;17.23;11.93;;;;;;;;;;755485;182;721837;-78
2023/05/06 09:37:19;;;;;;;16.33;11.30;;;;;;;;;;741945;186;919138;-77
2023/05/06 09:39:44;;;;;;;16.50;11.97;;;;;;;;;;760788;183;919391;-76
2023/05/06 09:42:10;;;;;;;18.93;12.80;;;;;;;;;;764105;182;917745;-77
2023/05/06 09:44:36;;;;;;;22.63;12.93;;;;;;;;;;763896;181;919036;-77
2023/05/06 09:47:02;;;;;;;17.70;12.03;;;;;;;;;;764008;181;815748;-77
2023/05/06 09:49:27;;;;;;;17.40;12.97;;;;;;;;;;770680;180;919404;-78
2023/05/06 09:51:53;;;;;;;20.80;13.47;;;;;;;;;;761234;182;920501;-77
2023/05/06 09:54:19;;;;;;;19.17;14.20;;;;;;;;;;757486;183;915930;-76
2023/05/06 09:56:45;;;;;;;16.47;13.13;;;;;;;;;;764350;182;915305;-76
2023/05/06 09:59:11;;;;;;;17.10;12.90;;;;;;;;;;763230;181;913995;-77
2023/05/06 10:01:37;;;;;;;19.03;14.27;;;;;;;;;;763765;181;917314;-77
2023/05/06 10:04:03;;;;;;;29.77;15.73;;;;;;;;;;761093;181;813669;-77
2023/05/06 10:06:28;;;;;;;19.43;15.10;;;;;;;;;;759868;181;914641;-77
2023/05/06 10:08:54;;;;;;;20.33;15.55;;;;;;;;;;762965;180;917878;-78
2023/05/06 10:11:20;;;;;;;21.73;16.50;;;;;;;;;;761425;181;813532;-78
2023/05/06 10:13:46;;;;;;;20.63;17.63;;;;;;;;;;769612;181;808260;-77
2023/05/06 10:16:12;;;;;;;19.53;16.40;;;;;;;;;;760072;181;812029;-76
2023/05/06 10:18:38;;;;;;;18.53;16.27;;;;;;;;;;768638;181;805165;-78
2023/05/06 10:21:04;;;;;;;16.70;13.63;;;;;;;;;;765376;181;800596;-78
2023/05/06 10:23:30;;;;;;;23.27;15.20;;;;;;;;;;764139;179;913108;-78
2023/05/06 10:25:56;;;;;;;22.07;17.30;;;;;;;;;;764529;180;911915;-78
2023/05/06 10:28:22;;;;;;;22.03;15.30;;;;;;;;;;767860;181;913503;-77
2023/05/06 10:30:48;;;;;;;17.40;14.37;;;;;;;;;;762982;181;810160;-77
2023/05/06 10:33:13;;;;;;;21.58;16.77;;;;;;;;;;764724;180;940846;-78
2023/05/06 10:35:49;;;;;;;19.23;15.60;;;;;;;;;;752489;184;909913;-77
2023/05/06 10:38:16;;;;;;;19.87;16.13;;;;;;;;;;770847;183;918639;-77
2023/05/06 10:40:42;;;;;;;16.97;13.63;;;;;;;;;;763385;183;941382;-79
2023/05/06 10:43:14;;;;;;;19.83;15.13;;;;;;;;;;766364;181;911950;-77
2023/05/06 10:45:39;;;;;;;19.57;14.40;;;;;;;;;;761033;182;910332;-78
2023/05/06 10:48:07;;;;;;;19.00;15.37;;;;;;;;;;764879;182;899326;-78
2023/05/06 10:50:31;;;;;;;21.20;15.20;;;;;;;;;;761895;180;1092107;-77
2023/05/06 10:52:58;;;;;;;21.73;14.00;;;;;;;;;;761285;180;918301;-77
2023/05/06 10:55:27;;;;;;;16.57;13.63;;;;;;;;;;773424;180;806125;-77
2023/05/06 10:57:54;;;;;;;15.70;13.47;;;;;;;;;;762511;180;917990;-77
2023/05/06 11:00:19;;;;;;;15.80;12.97;;;;;;;;;;764544;180;826081;-78
2023/05/06 11:02:45;;;;;;;17.23;13.38;;;;;;;;;;767229;180;918554;-78
2023/05/06 11:05:11;;;;;;;22.60;14.70;;;;;;;;;;769243;180;920373;-77
2023/05/06 11:07:37;;;;;;;17.73;14.13;;;;;;;;;;759826;182;1016176;-78
2023/05/06 11:10:05;;;;;;;18.27;13.87;;;;;;;;;;758282;181;920437;-78
2023/05/06 11:12:35;;;;;;;18.77;14.50;;;;;;;;;;767561;181;916610;-77
2023/05/06 11:15:01;;;;;;;15.40;12.90;;;;;;;;;;776461;182;715306;-78
2023/05/06 11:17:29;;;;;;;14.80;13.30;;;;;;;;;;764848;180;1309690;-77
2023/05/06 11:20:00;;;;;;;19.40;13.60;;;;;;;;;;763894;181;817013;-77
2023/05/06 11:22:32;;;;;;;15.57;13.00;;;;;;;;;;768375;182;760697;-78
2023/05/06 11:24:58;;;;;;;16.53;13.53;;;;;;;;;;767192;183;892239;-77
2023/05/06 11:27:24;;;;;;;14.53;13.03;;;;;;;;;;759167;181;919807;-77
2023/05/06 11:29:50;;;;;;;16.07;12.90;;;;;;;;;;756915;183;918711;-77
2023/05/06 11:32:18;;;;;;;17.03;13.60;;;;;;;;;;771183;181;918284;-78
2023/05/06 11:34:44;;;;;;;15.55;13.65;;;;;;;;;;760743;181;814632;-78
2023/05/06 11:37:10;;;;;;;16.70;13.77;;;;;;;;;;757137;181;812260;-77
2023/05/06 11:39:36;;;;;;;16.00;14.17;;;;;;;;;;763824;181;919922;-77
2023/05/06 11:42:02;;;;;;;14.97;12.73;;;;;;;;;;756754;184;849503;-77
2023/05/06 11:44:28;;;;;;;21.07;13.37;;;;;;;;;;760864;180;791818;-78
2023/05/06 11:46:55;;;;;;;15.50;13.30;;;;;;;;;;763423;181;785313;-78
2023/05/06 11:49:20;;;;;;;16.13;12.40;;;;;;;;;;753654;183;919122;-78
2023/05/06 11:51:46;;;;;;;15.90;12.47;;;;;;;;;;738045;187;917353;-78
2023/05/06 11:54:14;;;;;;;15.83;11.90;;;;;;;;;;768335;180;739521;-79
2023/05/06 11:56:51;;;;;;;14.37;12.20;;;;;;;;;;763980;182;817314;-79
2023/05/06 11:59:17;;;;;;;20.00;13.00;;;;;;;;;;761528;182;919185;-78
2023/05/06 12:01:43;;;;;;;18.10;11.43;;;;;;;;;;762224;182;896772;-79
2023/05/06 12:04:09;;;;;;;15.43;12.30;;;;;;;;;;755131;182;919157;-79
2023/05/06 12:06:35;;;;;;;13.70;11.80;;;;;;;;;;741215;189;815886;-79
2023/05/06 12:09:03;;;;;;;13.70;12.20;;;;;;;;;;762967;182;822578;-78
2023/05/06 12:11:29;;;;;;;14.30;11.50;;;;;;;;;;757906;182;820163;-78
2023/05/06 12:13:55;;;;;;;12.60;11.30;;;;;;;;;;766900;181;830387;-78
2023/05/06 12:16:21;;;;;;;12.47;11.13;;;;;;;;;;769486;180;815686;-78
2023/05/06 12:18:47;;;;;;;13.10;11.03;;;;;;;;;;761663;183;917942;-79
2023/05/06 12:21:13;;;;;;;15.00;10.33;;;;;;;;;;757792;180;917618;-78
2023/05/06 12:23:54;;;;;;;11.97;9.80;;;;;;;;;;770802;180;977060;-78
2023/05/06 12:26:21;;;;;;;13.63;10.50;;;;;;;;;;773725;181;816865;-78
2023/05/06 12:28:46;;;;;;;10.77;9.40;;;;;;;;;;761838;182;917655;-78
2023/05/06 12:31:20;;;;;;;18.25;9.70;;;;;;;;;;751138;181;1781171;-78
2023/05/06 12:33:47;;;;;;;14.17;10.07;;;;;;;;;;765811;181;913025;-76
2023/05/06 12:36:11;;;;;;;12.00;9.90;;;;;;;;;;762756;181;920177;-76
2023/05/06 12:38:37;;;;;;;15.23;10.70;;;;;;;;;;763652;181;879715;-70
2023/05/06 12:41:05;;;;;;;11.20;9.33;;;;;;;;;;772179;181;921294;-71
2023/05/06 12:43:30;;;;;;;12.97;9.70;;;;;;;;;;766766;182;913663;-72
2023/05/06 12:46:01;;;;;;;42.23;11.50;;;;;;;;;;763774;183;917701;-71
2023/05/06 12:48:27;;;;;;;13.53;7.90;;;;;;;;;;765286;181;740628;-71
2023/05/06 12:50:53;;;;;;;15.70;10.93;;;;;;;;;;756304;183;874270;-71
2023/05/06 12:53:19;;;;;;;12.20;10.10;;;;;;;;;;766716;180;817484;-71
2023/05/06 12:55:45;;;;;;;12.93;9.33;;;;;;;;;;762307;183;834950;-71
2023/05/06 12:58:15;;;;;;;11.83;10.20;;;;;;;;;;762467;181;629607;-71
2023/05/06 13:00:40;;;;;;;12.53;9.10;;;;;;;;;;770214;181;621102;-71
2023/05/06 13:03:06;;;;;;;13.83;10.20;;;;;;;;;;764732;183;904700;-71
2023/05/06 13:05:32;;;;;;;10.73;9.63;;;;;;;;;;758662;181;799894;-71
2023/05/06 13:07:58;;;;;;;12.20;10.53;;;;;;;;;;760109;180;1015581;-72
2023/05/06 13:10:24;;;;;;;13.40;9.83;;;;;;;;;;768718;182;614344;-71
2023/05/06 13:12:50;;;;;;;12.03;9.60;;;;;;;;;;754553;180;882977;-72
2023/05/06 13:15:16;;;;;;;22.13;9.60;;;;;;;;;;763709;182;726403;-71
2023/05/06 13:17:42;;;;;;;16.00;10.00;;;;;;;;;;764627;180;771504;-72
2023/05/06 13:20:08;;;;;;;12.53;9.70;;;;;;;;;;767352;180;774648;-71
2023/05/06 13:22:34;;;;;;;9.93;8.73;;;;;;;;;;766931;180;892976;-71
2023/05/06 13:25:00;;;;;;;11.37;9.30;;;;;;;;;;767099;181;738861;-71
2023/05/06 13:27:26;;;;;;;12.30;9.87;;;;;;;;;;767219;180;710896;-71
2023/05/06 13:29:51;;;;;;;11.80;9.27;;;;;;;;;;755659;183;916958;-72
2023/05/06 13:32:17;;;;;;;13.40;9.20;;;;;;;;;;763141;183;805445;-72
2023/05/06 13:34:43;;;;;;;11.00;9.90;;;;;;;;;;758878;180;906543;-71
2023/05/06 13:37:09;;;;;;;9.93;8.73;;;;;;;;;;758351;181;814166;-71
2023/05/06 13:39:35;;;;;;;9.23;7.70;;;;;;;;;;760784;181;916740;-71
2023/05/06 13:42:01;;;;;;;9.33;7.83;;;;;;;;;;741576;190;620301;-71
2023/05/06 13:44:26;;;;;;;8.87;7.97;;;;;;;;;;763634;183;813143;-71
2023/05/06 13:46:52;;;;;;;10.10;7.57;;;;;;;;;;765273;181;909850;-71
2023/05/06 13:49:18;;;;;;;9.40;7.70;;;;;;;;;;770063;183;922824;-71
2023/05/06 13:51:44;;;;;;;10.00;7.20;;;;;;;;;;763254;180;919317;-71
2023/05/06 13:54:10;;;;;;;10.40;8.50;;;;;;;;;;764464;180;898827;-70
2023/05/06 13:56:36;;;;;;;14.80;7.93;;;;;;;;;;765381;181;829916;-70
2023/05/06 13:59:02;;;;;;;11.80;8.20;;;;;;;;;;758285;180;919387;-71
2023/05/06 14:01:27;;;;;;;11.23;8.03;;;;;;;;;;761500;181;635050;-71
2023/05/06 14:03:53;;;;;;;8.60;7.70;;;;;;;;;;761146;181;919378;-71